Time;durP1;ratioP1;P1;durP2;ratioP2;P2;SDS_P1;SDS_P2;PMS_P1;PMS_P2;Temp;Humidity;BMP_temperature;BMP_pressure;BME280_temperature;BME280_humidity;BME280_pressure;Samples;Min_cycle;Max_cycle;Signal;HPM_P1;HPM_P2
2021/05/23 00:01:18;;;;;;;1.27;1.17;;;10.90;99.90;;;;;;5032319;28;20497;-70
2021/05/23 00:03:44;;;;;;;1.45;0.82;;;10.90;99.90;;;;;;5032288;28;20566;-71
2021/05/23 00:06:11;;;;;;;3.00;1.45;;;10.90;99.90;;;;;;5032107;28;20080;-70
2021/05/23 00:08:37;;;;;;;1.40;1.30;;;10.80;99.90;;;;;;5031406;28;20046;-70
2021/05/23 00:11:06;;;;;;;1.67;0.80;;;10.80;99.90;;;;;;5032172;28;20065;-70
2021/05/23 00:13:36;;;;;;;0.80;0.80;;;10.80;99.90;;;;;;5032437;28;20555;-71
2021/05/23 00:16:07;;;;;;;0.80;0.80;;;10.80;99.90;;;;;;5031861;28;20041;-71
2021/05/23 00:18:36;;;;;;;0.98;0.93;;;10.80;99.90;;;;;;5031565;28;20099;-71
2021/05/23 00:21:03;;;;;;;1.52;1.00;;;10.70;99.90;;;;;;5032028;28;20045;-71
2021/05/23 00:23:30;;;;;;;4.45;1.27;;;10.60;99.90;;;;;;5031421;28;20073;-71
2021/05/23 00:25:56;;;;;;;2.20;2.03;;;10.60;99.90;;;;;;5031470;28;20072;-70
2021/05/23 00:28:23;;;;;;;1.27;1.10;;;10.50;99.90;;;;;;5032166;28;20084;-70
2021/05/23 00:30:49;;;;;;;1.23;1.13;;;10.50;99.90;;;;;;5032191;28;20084;-69
2021/05/23 00:33:16;;;;;;;2.20;1.25;;;10.50;99.90;;;;;;5032323;28;20049;-70
2021/05/23 00:35:42;;;;;;;3.78;1.33;;;10.50;99.90;;;;;;5032393;28;20093;-70
2021/05/23 00:38:09;;;;;;;1.35;1.25;;;10.40;99.90;;;;;;5032097;28;20503;-70
2021/05/23 00:40:36;;;;;;;1.40;1.15;;;10.50;99.90;;;;;;5031892;28;20145;-70
2021/05/23 00:43:06;;;;;;;2.20;1.58;;;10.40;99.90;;;;;;5032078;28;20532;-70
2021/05/23 00:45:32;;;;;;;2.78;1.20;;;10.40;99.90;;;;;;5031824;28;20046;-70
2021/05/23 00:47:59;;;;;;;2.10;1.05;;;10.40;99.90;;;;;;5032209;28;20041;-70
2021/05/23 00:50:26;;;;;;;3.70;1.75;;;10.30;99.90;;;;;;5031704;28;20045;-70
2021/05/23 00:52:54;;;;;;;2.25;1.25;;;10.30;99.90;;;;;;5032002;28;20041;-71
2021/05/23 00:55:21;;;;;;;1.23;1.13;;;10.30;99.90;;;;;;5032080;28;20052;-71
2021/05/23 00:57:47;;;;;;;1.58;1.40;;;10.30;99.90;;;;;;5031680;28;20042;-71
2021/05/23 01:01:04;;;;;;;1.50;1.40;;;10.30;99.90;;;;;;5031684;28;20052;-70
2021/05/23 01:03:53;;;;;;;1.50;1.45;;;10.20;99.90;;;;;;5031651;28;20045;-70
2021/05/23 01:06:20;;;;;;;4.72;2.10;;;10.20;99.90;;;;;;5031014;28;20103;-69
2021/05/23 01:08:49;;;;;;;1.92;1.60;;;10.10;99.90;;;;;;5031949;28;20111;-70
2021/05/23 01:11:54;;;;;;;3.38;1.60;;;10.10;99.90;;;;;;5031500;28;20509;-70
2021/05/23 01:14:47;;;;;;;2.05;1.45;;;10.10;99.90;;;;;;5012272;28;20050;-70
2021/05/23 01:17:15;;;;;;;1.55;1.45;;;10.10;99.90;;;;;;5011919;28;20076;-70
2021/05/23 01:19:52;;;;;;;1.40;1.27;;;10.10;99.90;;;;;;5014623;28;20046;-70
2021/05/23 01:22:28;;;;;;;2.95;1.88;;;10.10;99.90;;;;;;5032503;28;20123;-70
2021/05/23 01:25:02;;;;;;;2.20;2.10;;;10.10;99.90;;;;;;5035354;28;20490;-70
2021/05/23 01:27:35;;;;;;;1.95;1.60;;;10.10;99.90;;;;;;5035055;28;20053;-70
2021/05/23 01:30:04;;;;;;;1.40;1.30;;;10.10;99.90;;;;;;5035310;28;20053;-70
2021/05/23 01:32:30;;;;;;;1.83;1.27;;;10.10;99.90;;;;;;5035488;28;20076;-70
2021/05/23 01:35:00;;;;;;;2.13;1.92;;;10.10;99.90;;;;;;5035249;28;20772;-70
2021/05/23 01:37:26;;;;;;;1.40;1.40;;;10.10;99.90;;;;;;5034663;28;20041;-70
2021/05/23 01:39:53;;;;;;;1.73;1.63;;;10.00;99.90;;;;;;5035158;28;20547;-70
2021/05/23 01:42:20;;;;;;;2.08;1.90;;;10.00;99.90;;;;;;5035322;28;20065;-70
2021/05/23 01:44:47;;;;;;;2.37;1.90;;;9.90;99.90;;;;;;5035229;28;20049;-71
2021/05/23 01:47:14;;;;;;;7.93;1.77;;;9.90;99.90;;;;;;5034759;28;20621;-70
2021/05/23 01:49:40;;;;;;;1.63;1.48;;;9.90;99.90;;;;;;5035155;28;20058;-71
2021/05/23 01:52:06;;;;;;;1.63;1.52;;;9.90;99.90;;;;;;5031144;28;20084;-70
2021/05/23 01:54:32;;;;;;;2.75;1.90;;;9.80;99.90;;;;;;5034988;28;20045;-70
2021/05/23 01:56:58;;;;;;;3.03;1.88;;;9.70;99.90;;;;;;5033911;28;20053;-70
2021/05/23 01:59:25;;;;;;;1.77;1.67;;;9.70;99.90;;;;;;5035088;28;20077;-70
2021/05/23 02:01:51;;;;;;;2.42;2.22;;;9.70;99.90;;;;;;5034771;28;20069;-71
2021/05/23 02:04:17;;;;;;;1.80;1.67;;;9.60;99.90;;;;;;5034273;28;20539;-70
2021/05/23 02:06:43;;;;;;;2.53;1.50;;;9.60;99.90;;;;;;5034298;28;20086;-71
2021/05/23 02:09:09;;;;;;;2.05;1.70;;;9.50;99.90;;;;;;5034495;28;20081;-71
2021/05/23 02:11:35;;;;;;;3.53;2.10;;;9.40;99.90;;;;;;5034443;28;20085;-71
2021/05/23 02:14:01;;;;;;;2.00;1.60;;;9.30;99.90;;;;;;5034972;28;20140;-71
2021/05/23 02:16:32;;;;;;;3.00;2.03;;;9.30;99.90;;;;;;5034406;28;20045;-71
2021/05/23 02:18:58;;;;;;;2.95;1.85;;;9.30;99.90;;;;;;5034530;28;20069;-71
2021/05/23 02:21:24;;;;;;;5.07;1.93;;;9.30;99.90;;;;;;5026195;28;20085;-70
2021/05/23 02:23:51;;;;;;;5.75;4.20;;;9.20;99.90;;;;;;5034394;28;20127;-71
2021/05/23 02:26:17;;;;;;;9.77;5.90;;;9.10;99.90;;;;;;5034187;28;20100;-71
2021/05/23 02:28:43;;;;;;;4.50;2.00;;;9.10;99.90;;;;;;5034227;28;20520;-70
2021/05/23 02:31:09;;;;;;;2.60;2.40;;;9.10;99.90;;;;;;5033044;28;20168;-70
2021/05/23 02:33:36;;;;;;;2.20;2.00;;;9.10;99.90;;;;;;5034189;28;20104;-70
2021/05/23 02:36:03;;;;;;;1.93;1.83;;;9.00;99.90;;;;;;5033855;28;20053;-70
2021/05/23 02:38:29;;;;;;;2.07;1.87;;;8.90;99.90;;;;;;5034235;28;20045;-71
2021/05/23 02:40:56;;;;;;;2.05;1.88;;;9.00;99.90;;;;;;5034251;28;20042;-71
2021/05/23 02:43:23;;;;;;;2.30;2.10;;;8.90;99.90;;;;;;5034172;28;20045;-71
2021/05/23 02:45:50;;;;;;;1.70;1.50;;;8.90;99.90;;;;;;5033636;28;20069;-71
2021/05/23 02:48:17;;;;;;;6.40;4.27;;;8.90;99.90;;;;;;5033735;28;20045;-70
2021/05/23 02:50:46;;;;;;;6.93;4.45;;;8.90;99.90;;;;;;5033314;28;20543;-70
2021/05/23 02:53:13;;;;;;;4.50;2.30;;;8.80;99.90;;;;;;5033906;28;20127;-70
2021/05/23 02:55:41;;;;;;;2.53;2.33;;;8.90;99.90;;;;;;5033181;28;20084;-70
2021/05/23 02:58:09;;;;;;;3.17;2.10;;;8.80;99.90;;;;;;5033611;28;20081;-70
2021/05/23 03:00:35;;;;;;;4.13;2.33;;;8.90;99.90;;;;;;5033582;28;20152;-71
2021/05/23 03:03:02;;;;;;;4.37;2.40;;;8.90;99.90;;;;;;5033552;28;20042;-70
2021/05/23 03:05:28;;;;;;;3.80;2.10;;;8.90;99.90;;;;;;5033655;28;20057;-70
2021/05/23 03:07:56;;;;;;;4.60;2.30;;;8.90;99.90;;;;;;5033461;28;20056;-70
2021/05/23 03:10:24;;;;;;;4.27;2.43;;;8.90;99.90;;;;;;5033194;28;20054;-70
2021/05/23 03:12:51;;;;;;;4.50;2.43;;;8.90;99.90;;;;;;5033621;28;20041;-70
2021/05/23 03:15:21;;;;;;;3.87;1.97;;;8.90;99.90;;;;;;5033504;28;20049;-70
2021/05/23 03:17:47;;;;;;;2.47;2.00;;;8.90;99.90;;;;;;5033309;28;20068;-70
2021/05/23 03:20:16;;;;;;;4.33;2.33;;;8.90;99.90;;;;;;5033115;28;20041;-70
2021/05/23 03:22:43;;;;;;;3.07;2.40;;;8.90;99.90;;;;;;5033579;28;20072;-70
2021/05/23 03:25:12;;;;;;;1.97;1.70;;;8.90;99.90;;;;;;5033490;28;20069;-71
2021/05/23 03:27:39;;;;;;;4.33;2.67;;;8.80;99.90;;;;;;5032529;28;20049;-71
2021/05/23 03:30:08;;;;;;;2.93;2.23;;;8.90;99.90;;;;;;5032997;28;20435;-71
2021/05/23 03:32:35;;;;;;;2.20;1.70;;;8.90;99.90;;;;;;5033472;28;20053;-71
2021/05/23 03:35:01;;;;;;;4.00;2.23;;;8.90;99.90;;;;;;5033244;28;20080;-70
2021/05/23 03:37:27;;;;;;;2.50;1.83;;;8.90;99.90;;;;;;5032796;28;20125;-69
2021/05/23 03:39:53;;;;;;;7.57;2.60;;;8.90;99.90;;;;;;5032998;28;20409;-70
2021/05/23 03:42:20;;;;;;;2.03;1.83;;;8.90;99.90;;;;;;5033196;28;20434;-70
2021/05/23 03:44:46;;;;;;;2.23;2.03;;;8.90;99.90;;;;;;5032470;28;20146;-70
2021/05/23 03:47:12;;;;;;;2.90;1.83;;;9.00;99.90;;;;;;5032538;28;20576;-70
2021/05/23 03:49:38;;;;;;;3.23;1.77;;;9.10;99.90;;;;;;5032674;28;20555;-70
2021/05/23 03:52:05;;;;;;;6.33;2.33;;;9.10;99.90;;;;;;5033423;28;20057;-70
2021/05/23 03:54:31;;;;;;;2.40;1.80;;;9.10;99.90;;;;;;5032700;28;20493;-70
2021/05/23 03:56:57;;;;;;;2.08;1.85;;;9.10;99.90;;;;;;5032295;28;20068;-70
2021/05/23 03:59:24;;;;;;;2.77;2.23;;;9.10;99.90;;;;;;5032531;28;20046;-70
2021/05/23 04:01:51;;;;;;;3.47;2.35;;;9.20;99.90;;;;;;5032747;28;20413;-69
2021/05/23 04:04:20;;;;;;;4.80;2.22;;;9.20;99.90;;;;;;5033024;28;20045;-70
2021/05/23 04:06:46;;;;;;;3.10;1.88;;;9.30;99.90;;;;;;5032713;28;20049;-70
2021/05/23 04:09:12;;;;;;;2.20;1.83;;;9.40;99.90;;;;;;5032335;28;20139;-70
2021/05/23 04:11:41;;;;;;;2.85;2.55;;;9.40;99.90;;;;;;5032554;28;20085;-70
2021/05/23 04:14:07;;;;;;;2.05;1.80;;;9.40;99.90;;;;;;5032804;28;20098;-70
2021/05/23 04:16:35;;;;;;;4.07;2.37;;;9.50;99.90;;;;;;5032295;28;20045;-70
2021/05/23 04:19:01;;;;;;;2.60;2.10;;;9.50;99.90;;;;;;5032520;28;20049;-70
2021/05/23 04:21:27;;;;;;;2.53;2.00;;;9.60;99.90;;;;;;5033213;28;20119;-70
2021/05/23 04:23:53;;;;;;;2.90;2.27;;;9.60;99.90;;;;;;5032200;28;20072;-70
2021/05/23 04:26:19;;;;;;;3.30;2.37;;;9.70;99.90;;;;;;5032011;28;20080;-70
2021/05/23 04:28:45;;;;;;;3.65;2.60;;;9.70;99.90;;;;;;5032458;28;20073;-70
2021/05/23 04:31:11;;;;;;;3.00;2.73;;;9.70;99.90;;;;;;5032631;28;20144;-70
2021/05/23 04:33:38;;;;;;;3.03;2.15;;;9.80;99.90;;;;;;5032760;28;20077;-70
2021/05/23 04:36:05;;;;;;;1.85;1.55;;;9.80;99.90;;;;;;5032044;28;20085;-70
2021/05/23 04:38:31;;;;;;;2.05;1.83;;;10.00;99.90;;;;;;5032605;28;20054;-70
2021/05/23 04:40:58;;;;;;;2.08;1.75;;;10.00;99.90;;;;;;5032699;28;20054;-70
2021/05/23 04:43:24;;;;;;;4.40;2.03;;;10.10;99.90;;;;;;5032651;28;20486;-69
2021/05/23 04:45:50;;;;;;;2.08;1.17;;;10.20;99.90;;;;;;5032211;28;20109;-71
2021/05/23 04:48:16;;;;;;;2.25;1.40;;;10.30;99.90;;;;;;5032323;28;20449;-71
2021/05/23 04:50:43;;;;;;;2.38;1.67;;;10.30;99.90;;;;;;5032244;28;20042;-70
2021/05/23 04:53:09;;;;;;;2.42;1.50;;;10.30;99.90;;;;;;5032756;28;20608;-70
2021/05/23 04:55:35;;;;;;;2.83;1.83;;;10.30;99.90;;;;;;5036070;28;20049;-70
2021/05/23 04:58:02;;;;;;;2.20;1.45;;;10.30;99.90;;;;;;5036869;28;20056;-70
2021/05/23 05:00:28;;;;;;;2.78;2.03;;;10.40;99.90;;;;;;5036091;28;20567;-70
2021/05/23 05:02:54;;;;;;;2.70;1.50;;;10.50;99.90;;;;;;5036213;28;20092;-70
2021/05/23 05:05:20;;;;;;;1.60;1.50;;;10.60;99.90;;;;;;5036238;28;20083;-70
2021/05/23 05:07:47;;;;;;;1.73;1.63;;;10.40;99.90;;;;;;5035956;28;20076;-70
2021/05/23 05:10:13;;;;;;;1.45;1.35;;;10.60;99.90;;;;;;5035758;28;20052;-69
2021/05/23 05:12:40;;;;;;;1.60;1.50;;;10.60;99.90;;;;;;5036351;28;20049;-69
2021/05/23 05:15:07;;;;;;;2.75;1.42;;;10.60;99.90;;;;;;5036283;28;20413;-70
2021/05/23 05:17:34;;;;;;;2.00;1.25;;;10.70;99.90;;;;;;5035681;28;20496;-70
2021/05/23 05:20:00;;;;;;;1.30;1.20;;;10.60;99.90;;;;;;5035689;28;20087;-70
2021/05/23 05:22:26;;;;;;;2.03;1.40;;;10.70;99.90;;;;;;5036115;28;20107;-71
2021/05/23 05:24:53;;;;;;;7.90;4.90;;;10.60;99.90;;;;;;5035660;28;20425;-70
2021/05/23 05:27:20;;;;;;;1.50;1.40;;;10.60;99.90;;;;;;5035743;28;20077;-70
2021/05/23 05:29:46;;;;;;;1.30;1.20;;;10.60;99.90;;;;;;5035705;28;20053;-70
2021/05/23 05:32:12;;;;;;;2.95;2.63;;;10.50;99.90;;;;;;5035738;28;20099;-70
2021/05/23 05:34:38;;;;;;;2.25;1.73;;;10.50;99.90;;;;;;5035859;28;20119;-70
2021/05/23 05:37:04;;;;;;;7.15;4.70;;;10.40;99.90;;;;;;5035821;28;20081;-70
2021/05/23 05:39:31;;;;;;;1.60;1.50;;;10.50;99.90;;;;;;5035064;28;20053;-70
2021/05/23 05:41:58;;;;;;;2.63;1.60;;;10.70;99.90;;;;;;5035605;28;20420;-70
2021/05/23 05:44:24;;;;;;;1.40;1.00;;;10.80;99.90;;;;;;5035457;28;20068;-69
2021/05/23 05:46:51;;;;;;;1.27;1.17;;;10.80;99.90;;;;;;5035598;28;20065;-70
2021/05/23 05:49:17;;;;;;;2.45;1.10;;;10.90;99.90;;;;;;5035177;28;20489;-69
2021/05/23 05:51:43;;;;;;;3.67;1.48;;;10.80;99.90;;;;;;5035414;28;20050;-70
2021/05/23 05:54:10;;;;;;;1.30;1.20;;;10.80;99.90;;;;;;5035683;28;20095;-71
2021/05/23 05:56:37;;;;;;;2.42;1.80;;;10.90;99.90;;;;;;5035101;28;20049;-71
2021/05/23 05:59:04;;;;;;;1.33;1.10;;;11.00;99.90;;;;;;5034556;28;20124;-70
2021/05/23 06:01:30;;;;;;;1.23;1.05;;;11.10;99.90;;;;;;5034951;28;20470;-70
2021/05/23 06:03:56;;;;;;;3.03;1.30;;;11.10;99.90;;;;;;5034967;28;20050;-71
2021/05/23 06:06:23;;;;;;;2.25;1.55;;;11.10;99.90;;;;;;5033628;28;20666;-70
2021/05/23 06:08:49;;;;;;;2.25;2.05;;;11.00;99.90;;;;;;5034537;28;20041;-70
2021/05/23 06:11:15;;;;;;;1.42;1.20;;;11.00;99.90;;;;;;5034937;28;20497;-70
2021/05/23 06:13:41;;;;;;;2.60;1.13;;;11.00;99.90;;;;;;5035064;28;20045;-70
2021/05/23 06:16:08;;;;;;;1.73;1.42;;;11.10;99.90;;;;;;5034649;28;20041;-71
2021/05/23 06:18:34;;;;;;;1.40;1.30;;;11.10;99.90;;;;;;5034417;28;20493;-71
2021/05/23 06:21:00;;;;;;;1.20;1.10;;;11.20;99.90;;;;;;5034322;28;20497;-71
2021/05/23 06:23:26;;;;;;;1.52;1.33;;;11.20;99.90;;;;;;5034639;28;20077;-70
2021/05/23 06:25:53;;;;;;;3.13;1.55;;;11.20;99.90;;;;;;5014860;28;20054;-71
2021/05/23 06:28:19;;;;;;;1.77;1.35;;;11.40;99.90;;;;;;5014495;28;20553;-70
2021/05/23 06:30:45;;;;;;;1.38;1.27;;;11.50;99.90;;;;;;5014232;28;20077;-71
2021/05/23 06:33:12;;;;;;;1.83;1.08;;;11.20;99.90;;;;;;5013694;28;20493;-71
2021/05/23 06:35:38;;;;;;;1.98;1.40;;;11.20;99.90;;;;;;5013347;28;20049;-71
2021/05/23 06:38:04;;;;;;;1.67;1.10;;;11.30;99.90;;;;;;5028652;28;20072;-72
2021/05/23 06:40:30;;;;;;;2.10;1.40;;;11.30;99.90;;;;;;5033338;28;20083;-71
2021/05/23 06:42:57;;;;;;;1.20;1.10;;;11.30;99.90;;;;;;5033253;28;20080;-72
2021/05/23 06:45:23;;;;;;;3.35;1.40;;;11.30;99.90;;;;;;5033274;28;20045;-72
2021/05/23 06:47:49;;;;;;;2.78;1.30;;;11.20;99.90;;;;;;5033328;28;20045;-71
2021/05/23 06:50:15;;;;;;;1.30;1.20;;;11.20;99.90;;;;;;5036751;28;20080;-71
2021/05/23 06:52:42;;;;;;;2.55;1.30;;;11.10;99.90;;;;;;5033543;28;20085;-71
2021/05/23 06:55:09;;;;;;;1.63;0.98;;;11.00;99.90;;;;;;5033564;28;20401;-69
2021/05/23 06:57:35;;;;;;;2.42;1.65;;;10.70;99.90;;;;;;5033328;28;20049;-72
2021/05/23 07:00:02;;;;;;;2.05;1.20;;;10.60;99.90;;;;;;5033539;28;20052;-69
2021/05/23 07:02:28;;;;;;;3.45;1.75;;;10.50;99.90;;;;;;5032890;28;20124;-69
2021/05/23 07:04:54;;;;;;;3.20;1.73;;;10.50;99.90;;;;;;5033115;28;20089;-72
2021/05/23 07:07:21;;;;;;;2.20;1.27;;;10.40;99.90;;;;;;5033271;28;20056;-72
2021/05/23 07:09:47;;;;;;;1.88;1.33;;;10.40;99.90;;;;;;5033701;28;20061;-70
2021/05/23 07:12:13;;;;;;;2.78;1.55;;;10.50;99.90;;;;;;5033262;28;20135;-71
2021/05/23 07:14:39;;;;;;;1.35;1.23;;;10.50;99.90;;;;;;5033158;28;20045;-72
2021/05/23 07:17:05;;;;;;;2.83;1.40;;;10.50;99.90;;;;;;5032356;28;20092;-69
2021/05/23 07:19:31;;;;;;;3.30;1.52;;;10.60;99.90;;;;;;5034626;28;20065;-73
2021/05/23 07:21:57;;;;;;;2.28;1.10;;;10.70;99.90;;;;;;5034183;28;20045;-72
2021/05/23 07:24:24;;;;;;;2.05;1.42;;;10.80;99.90;;;;;;5033203;28;20049;-73
2021/05/23 07:26:50;;;;;;;2.13;1.10;;;11.00;99.90;;;;;;5032917;28;20490;-74
2021/05/23 07:29:16;;;;;;;10.55;3.50;;;11.40;99.90;;;;;;5032914;28;20053;-72
2021/05/23 07:31:42;;;;;;;2.17;1.50;;;11.60;99.90;;;;;;5032778;28;20081;-72
2021/05/23 07:34:08;;;;;;;4.25;2.13;;;11.70;99.90;;;;;;5033743;28;20076;-73
2021/05/23 07:36:34;;;;;;;2.42;1.13;;;11.70;99.90;;;;;;5033455;28;20459;-71
2021/05/23 07:39:00;;;;;;;2.53;1.98;;;11.80;99.90;;;;;;5033324;28;20046;-73
2021/05/23 07:41:27;;;;;;;2.50;1.50;;;11.90;99.90;;;;;;5032856;28;20076;-72
2021/05/23 07:43:53;;;;;;;2.72;2.03;;;12.20;99.90;;;;;;5032423;28;20434;-71
2021/05/23 07:46:19;;;;;;;1.42;1.30;;;12.30;99.90;;;;;;5032376;28;20393;-71
2021/05/23 07:48:46;;;;;;;1.90;1.27;;;12.70;99.90;;;;;;5032563;28;20077;-72
2021/05/23 07:51:12;;;;;;;2.65;1.40;;;13.10;99.90;;;;;;5032435;28;20417;-72
2021/05/23 07:53:38;;;;;;;3.05;1.52;;;13.30;99.90;;;;;;5032574;28;20048;-71
2021/05/23 07:56:07;;;;;;;1.10;0.90;;;13.50;99.90;;;;;;5032177;28;20069;-71
2021/05/23 07:58:34;;;;;;;1.95;1.30;;;13.50;99.90;;;;;;5032530;28;20045;-71
2021/05/23 08:01:00;;;;;;;1.65;0.88;;;13.60;99.90;;;;;;5032285;28;20468;-70
2021/05/23 08:03:27;;;;;;;1.63;1.50;;;14.40;99.90;;;;;;5032116;28;20077;-73
2021/05/23 08:05:54;;;;;;;1.23;1.17;;;14.90;99.90;;;;;;5034729;28;20053;-73
2021/05/23 08:08:20;;;;;;;1.50;1.40;;;15.10;99.90;;;;;;5032118;28;20053;-72
2021/05/23 08:10:46;;;;;;;1.05;1.05;;;15.00;99.90;;;;;;5032213;28;20041;-69
2021/05/23 08:13:12;;;;;;;2.42;1.17;;;14.80;99.90;;;;;;5032451;28;20437;-72
2021/05/23 08:15:41;;;;;;;1.85;1.38;;;14.90;99.90;;;;;;5031631;28;20493;-72
2021/05/23 08:18:08;;;;;;;1.98;1.63;;;14.90;99.90;;;;;;5032152;28;20084;-70
2021/05/23 08:20:34;;;;;;;3.75;1.33;;;14.60;99.90;;;;;;5032329;28;20053;-71
2021/05/23 08:23:00;;;;;;;1.85;1.60;;;15.20;99.90;;;;;;5032293;28;20077;-70
2021/05/23 08:25:26;;;;;;;2.88;1.35;;;15.50;99.90;;;;;;5032257;28;20049;-72
2021/05/23 08:27:53;;;;;;;3.22;1.42;;;15.40;99.90;;;;;;5031733;28;20099;-71
2021/05/23 08:30:20;;;;;;;1.38;1.15;;;15.80;99.90;;;;;;5035641;28;20045;-72
2021/05/23 08:32:46;;;;;;;0.95;0.88;;;16.10;99.90;;;;;;5036328;28;20522;-71
2021/05/23 08:35:13;;;;;;;1.58;1.20;;;16.30;99.90;;;;;;5036140;28;20048;-71
2021/05/23 08:37:40;;;;;;;0.95;0.75;;;16.00;99.90;;;;;;5035770;28;20077;-71
2021/05/23 08:40:07;;;;;;;1.60;1.20;;;15.60;99.90;;;;;;5036206;28;20049;-71
2021/05/23 08:42:34;;;;;;;1.38;1.27;;;15.10;99.90;;;;;;5036192;28;20091;-72
2021/05/23 08:45:00;;;;;;;1.52;1.42;;;14.90;99.90;;;;;;5036652;28;20461;-70
2021/05/23 08:47:26;;;;;;;2.80;1.20;;;14.80;99.90;;;;;;5035853;28;20057;-73
2021/05/23 08:49:53;;;;;;;2.92;1.00;;;14.90;99.90;;;;;;5035417;28;20041;-73
2021/05/23 08:52:20;;;;;;;1.77;1.00;;;14.80;99.90;;;;;;5035951;28;20213;-69
2021/05/23 08:54:48;;;;;;;3.35;1.73;;;14.70;99.90;;;;;;5035310;28;20105;-70
2021/05/23 08:57:17;;;;;;;0.80;0.80;;;14.60;99.90;;;;;;5035292;28;20695;-72
2021/05/23 08:59:43;;;;;;;2.42;1.45;;;14.90;99.90;;;;;;5035846;28;20072;-71
2021/05/23 09:02:09;;;;;;;1.13;1.05;;;14.90;99.90;;;;;;5035747;28;20053;-72
2021/05/23 09:04:46;;;;;;;1.58;1.48;;;14.90;99.90;;;;;;5035753;28;20103;-71
2021/05/23 09:07:13;;;;;;;1.30;1.20;;;14.80;99.90;;;;;;5035469;28;20080;-72
2021/05/23 09:09:43;;;;;;;2.75;1.25;;;14.90;99.90;;;;;;5035353;28;20046;-72
2021/05/23 09:12:11;;;;;;;1.48;1.38;;;14.90;99.90;;;;;;5036758;28;20053;-71
2021/05/23 09:14:40;;;;;;;0.80;0.80;;;15.00;99.90;;;;;;5036015;28;20389;-74
2021/05/23 09:17:17;;;;;;;2.05;1.40;;;15.60;99.90;;;;;;5036321;28;20042;-74
2021/05/23 09:19:44;;;;;;;1.08;1.08;;;17.10;99.90;;;;;;5036315;28;20073;-74
2021/05/23 09:22:11;;;;;;;1.92;0.90;;;18.60;95.60;;;;;;5038587;28;20041;-73
2021/05/23 09:24:52;;;;;;;0.95;0.95;;;19.30;91.10;;;;;;5035401;28;20503;-74
2021/05/23 09:27:19;;;;;;;1.20;1.20;;;20.40;84.00;;;;;;5035029;28;20049;-73
2021/05/23 09:29:46;;;;;;;1.20;1.10;;;20.00;83.00;;;;;;5035450;28;20096;-74
2021/05/23 09:32:17;;;;;;;3.03;1.67;;;19.80;82.00;;;;;;5035035;28;20053;-73
2021/05/23 09:34:47;;;;;;;;;;;19.80;82.10;;;;;;5035608;28;20042;-74
2021/05/23 09:37:14;;;;;;;2.47;2.28;;;19.20;84.30;;;;;;5035338;28;19929;-74
2021/05/23 09:39:41;;;;;;;2.17;1.27;;;18.20;87.40;;;;;;5034832;28;20494;-74
2021/05/23 09:42:12;;;;;;;1.58;1.45;;;17.60;91.20;;;;;;5035016;28;20099;-73
2021/05/23 09:44:38;;;;;;;1.10;0.88;;;17.10;92.40;;;;;;5034736;28;20088;-73
2021/05/23 09:47:09;;;;;;;2.03;1.85;;;16.90;93.00;;;;;;5034537;28;20056;-73
2021/05/23 09:49:41;;;;;;;1.95;1.00;;;17.40;93.60;;;;;;5034478;28;20051;-74
2021/05/23 09:52:08;;;;;;;;;;;18.70;90.90;;;;;;5034889;28;20397;-73
2021/05/23 09:54:44;;;;;;;3.70;2.28;;;19.90;87.60;;;;;;5034778;28;19921;-73
2021/05/23 09:57:13;;;;;;;10.25;6.20;;;20.70;86.30;;;;;;5034535;28;20400;-73
2021/05/23 09:59:39;;;;;;;3.60;2.15;;;21.20;79.80;;;;;;5034584;28;20069;-74
2021/05/23 10:02:05;;;;;;;1.17;1.17;;;21.40;79.30;;;;;;5034599;28;20438;-74
2021/05/23 10:04:33;;;;;;;2.65;1.27;;;19.30;78.00;;;;;;5034618;28;20395;-75
2021/05/23 10:07:00;;;;;;;3.28;1.63;;;18.80;83.70;;;;;;5034103;28;20045;-74
2021/05/23 10:09:27;;;;;;;2.75;1.88;;;19.00;80.80;;;;;;5034464;28;20052;-74
2021/05/23 10:11:54;;;;;;;1.30;1.20;;;19.90;80.80;;;;;;5034382;28;20050;-74
2021/05/23 10:14:21;;;;;;;1.77;1.65;;;20.60;78.50;;;;;;5034135;28;20041;-73
2021/05/23 10:16:51;;;;;;;3.22;1.40;;;19.90;76.10;;;;;;5034010;28;20064;-73
2021/05/23 10:19:19;;;;;;;1.20;1.10;;;18.90;80.70;;;;;;5034586;28;20137;-75
2021/05/23 10:21:46;;;;;;;2.30;1.25;;;18.70;79.80;;;;;;5034377;28;20054;-73
2021/05/23 10:24:14;;;;;;;1.23;1.10;;;19.80;79.50;;;;;;5034039;28;20045;-76
2021/05/23 10:26:43;;;;;;;2.50;2.15;;;21.10;72.70;;;;;;5033815;28;20045;-74
2021/05/23 10:29:10;;;;;;;1.15;1.05;;;20.90;73.40;;;;;;5034453;28;20072;-74
2021/05/23 10:31:37;;;;;;;2.58;1.20;;;20.90;71.60;;;;;;5034295;28;20085;-74
2021/05/23 10:34:04;;;;;;;1.92;1.00;;;20.50;71.80;;;;;;5034386;28;20049;-74
2021/05/23 10:36:32;;;;;;;0.82;0.82;;;20.70;72.70;;;;;;5034084;28;20482;-74
2021/05/23 10:39:00;;;;;;;2.33;1.77;;;21.00;70.80;;;;;;5033984;28;20072;-73
2021/05/23 10:41:26;;;;;;;0.73;0.73;;;22.30;70.30;;;;;;5033729;28;20052;-77
2021/05/23 10:43:58;;;;;;;2.35;1.10;;;21.50;64.00;;;;;;5033895;28;20045;-74
2021/05/23 10:46:24;;;;;;;0.38;0.38;;;21.70;67.80;;;;;;5033589;28;20379;-74
2021/05/23 10:48:55;;;;;;;1.38;1.08;;;22.60;62.40;;;;;;5033452;28;20072;-74
2021/05/23 10:51:22;;;;;;;0.70;0.52;;;23.00;59.50;;;;;;5032770;28;20050;-74
2021/05/23 10:53:49;;;;;;;3.70;2.33;;;23.50;60.00;;;;;;5033629;28;20049;-73
2021/05/23 10:56:24;;;;;;;3.72;2.38;;;23.10;58.60;;;;;;5033609;28;20504;-73
2021/05/23 10:58:55;;;;;;;0.65;0.65;;;22.00;61.20;;;;;;5033447;28;20519;-74
2021/05/23 11:01:42;;;;;;;0.50;0.50;;;22.30;60.70;;;;;;5033447;28;20057;-73
2021/05/23 11:04:14;;;;;;;0.40;0.40;;;23.10;58.00;;;;;;5033292;28;20041;-73
2021/05/23 11:06:41;;;;;;;1.45;1.10;;;23.40;57.00;;;;;;5033297;28;20049;-73
2021/05/23 11:09:10;;;;;;;0.98;0.50;;;22.80;57.90;;;;;;5032996;28;20473;-73
2021/05/23 11:11:37;;;;;;;2.17;1.80;;;22.00;58.70;;;;;;5033366;28;20139;-75
2021/05/23 11:14:18;;;;;;;3.75;2.05;;;21.30;65.00;;;;;;5033379;28;20523;-72
2021/05/23 11:16:50;;;;;;;0.75;0.73;;;21.10;64.30;;;;;;5033024;28;20050;-73
2021/05/23 11:19:17;;;;;;;1.20;0.90;;;20.90;64.60;;;;;;5033266;28;20049;-73
2021/05/23 11:21:44;;;;;;;0.50;0.50;;;20.30;66.60;;;;;;5033485;28;20080;-72
2021/05/23 11:24:12;;;;;;;5.20;3.17;;;19.50;67.90;;;;;;5033252;28;20045;-73
2021/05/23 11:26:38;;;;;;;0.50;0.50;;;19.30;69.80;;;;;;5032913;28;20048;-74
2021/05/23 11:29:06;;;;;;;1.02;0.60;;;19.50;68.40;;;;;;5032822;28;20083;-74
2021/05/23 11:31:33;;;;;;;1.23;0.82;;;20.20;68.50;;;;;;5033062;28;20117;-73
2021/05/23 11:34:01;;;;;;;2.50;1.23;;;21.40;65.50;;;;;;5032974;28;20114;-73
2021/05/23 11:36:29;;;;;;;1.38;0.90;;;21.80;63.00;;;;;;5034664;28;20041;-73
2021/05/23 11:38:56;;;;;;;0.70;0.70;;;21.40;62.00;;;;;;5032794;28;20442;-73
2021/05/23 11:41:30;;;;;;;1.15;0.88;;;20.50;65.00;;;;;;5032643;28;20081;-73
2021/05/23 11:43:57;;;;;;;1.13;0.77;;;20.10;67.30;;;;;;5032789;28;20052;-74
2021/05/23 11:46:25;;;;;;;2.60;1.80;;;19.70;68.60;;;;;;5032803;28;20048;-74
2021/05/23 11:48:52;;;;;;;1.23;1.17;;;19.30;69.40;;;;;;5032358;28;20076;-74
2021/05/23 11:51:22;;;;;;;5.65;3.92;;;18.50;71.00;;;;;;5032434;28;20095;-73
2021/05/23 11:53:51;;;;;;;1.30;1.13;;;18.20;73.70;;;;;;5033283;28;20080;-74
2021/05/23 11:56:19;;;;;;;1.02;0.60;;;17.90;73.80;;;;;;5033317;28;20296;-73
2021/05/23 11:58:46;;;;;;;1.10;1.00;;;17.50;78.10;;;;;;5032659;28;20421;-73
2021/05/23 12:01:18;;;;;;;1.00;0.90;;;16.70;83.00;;;;;;5032676;28;20546;-73
2021/05/23 12:03:55;;;;;;;0.70;0.70;;;16.10;87.20;;;;;;5032439;28;20045;-73
2021/05/23 12:06:21;;;;;;;1.10;1.00;;;15.50;91.40;;;;;;5032176;28;20041;-74
2021/05/23 12:08:47;;;;;;;1.40;1.30;;;15.30;93.90;;;;;;5032265;28;20045;-74
2021/05/23 12:11:14;;;;;;;1.40;1.30;;;15.40;97.20;;;;;;5032525;28;20107;-73
2021/05/23 12:13:42;;;;;;;1.35;1.05;;;15.50;99.90;;;;;;5032449;28;20085;-74
2021/05/23 12:16:09;;;;;;;4.68;3.25;;;15.50;99.90;;;;;;5032013;28;20493;-74
2021/05/23 12:18:44;;;;;;;0.93;0.93;;;15.60;99.90;;;;;;5031876;28;20085;-74
2021/05/23 12:21:13;;;;;;;0.95;0.95;;;16.10;99.90;;;;;;5032321;28;20045;-73
2021/05/23 12:23:40;;;;;;;0.93;0.93;;;16.30;99.90;;;;;;5031996;28;20053;-74
2021/05/23 12:26:08;;;;;;;1.10;1.08;;;16.00;99.90;;;;;;5031550;28;20064;-74
2021/05/23 12:28:37;;;;;;;0.90;0.82;;;16.10;99.90;;;;;;5032054;28;20068;-74
2021/05/23 12:31:05;;;;;;;1.70;1.30;;;16.00;99.90;;;;;;5031789;28;20041;-74
2021/05/23 12:33:31;;;;;;;1.10;1.00;;;16.40;99.90;;;;;;5032142;28;20088;-72
2021/05/23 12:36:06;;;;;;;1.02;0.80;;;16.50;99.90;;;;;;5031575;28;20584;-73
2021/05/23 12:38:32;;;;;;;0.70;0.70;;;17.10;96.70;;;;;;5032211;28;20069;-74
2021/05/23 12:40:58;;;;;;;1.65;0.98;;;17.10;95.70;;;;;;5034144;28;20077;-73
2021/05/23 12:43:27;;;;;;;1.65;0.90;;;17.10;95.80;;;;;;5032704;28;20389;-74
2021/05/23 12:45:56;;;;;;;1.95;0.82;;;16.80;95.40;;;;;;5031340;28;20489;-74
2021/05/23 12:48:30;;;;;;;0.93;0.88;;;16.30;96.40;;;;;;5031858;28;20513;-74
2021/05/23 12:50:56;;;;;;;0.93;0.88;;;16.10;98.00;;;;;;5032112;28;20053;-74
2021/05/23 12:53:24;;;;;;;1.00;0.90;;;16.70;97.90;;;;;;5031909;28;20053;-74